Irma, Canada
Current Conditions -  °F | °C
As of 8:00 AM on Wednesday 26 Nov 2014 (Local Time) from CYLL Reporting Station
Overcast Overcast  
Wind Chill: -17°   Ceiling: 4200
Heat Index:   Visibility: 15mi
Dew Point: -4°   Wind: 10mph
Humidity: 85%   Direction: 120°ESE
Pressure: 30.24"   Gusts: NA
Location:  52.92°N, 111.23°W
Report Text: CYLL 261500Z 12009KT 15SM BKN042 OVC250 M18/M20 A3024 RMK SC7CI1 SLP304
Loading
Personal Weather Stations






























Interactive Weather Map New forecast layout! Learn more

10-Day Weather Forecast

Advertisements
Track Severe Weather on mobile